GMMX METAR and TAF | Updated Today

GMMX METAR

Menara Airport

Observation time: 15 min. ago

GMMX 052130Z 03003KT 360V060 9999 SCT090 14/M01 Q1024 NOSIG

Need help? Read our tutorial on how to read METARs or read the parsed version below.

Menara Airport (GMMX) METAR

  • Weather conditions on Sun, 05 Feb 2023 21:30:00 +0000 (15 min. ago):
  • Present conditions: Dry
  • Clouds: Scattered at 2743 meters
  • Visibility: Greater than 10 km
  • Wind: 30 degrees at 3 knots
  • Temperature: 14 celsius
  • Dew point: -1 celsius
  • Pressure: 1024 millibars
  • Remarks: None


Useful to know...

GMMX TAF

Menara Airport

TAF GMMX 051700Z 0518/0624 22008KT 8000 NSC
Observation time: 4:45 hr. ago
Need help? Read our tutorial on how to read TAFs or read the parsed version below.

Parsed version of TAF for Menara Airport (GMMX)

  • From 05 February at 18:00 UTC, to day 06 of the month at 24:00 UTC
  • Clouds: No significant clouds are observed
  • Visibility: 8000 meters
  • Wind: 220 degrees at 8

Airports near GMMX

No airports found within 100nm radius.